Time;durP1;ratioP1;P1;durP2;ratioP2;P2;SDS_P1;SDS_P2;PMS_P1;PMS_P2;Temp;Humidity;BMP_temperature;BMP_pressure;BME280_temperature;BME280_humidity;BME280_pressure;Samples;Min_cycle;Max_cycle;Signal;HPM_P1;HPM_P2
2022/08/26 00:01:52;;;;;;;13.18;3.15;;;;;;;;;;5058153;28;20609;-46
2022/08/26 00:04:23;;;;;;;9.18;2.80;;;;;;;;;;5057669;28;20204;-46
2022/08/26 00:06:52;;;;;;;11.35;3.20;;;;;;;;;;5057892;28;20520;-46
2022/08/26 00:09:19;;;;;;;11.68;3.85;;;;;;;;;;5057619;28;20562;-46
2022/08/26 00:11:46;;;;;;;19.60;3.58;;;;;;;;;;5057839;28;20200;-45
2022/08/26 00:14:14;;;;;;;15.82;3.60;;;;;;;;;;5057723;28;20291;-46
2022/08/26 00:16:42;;;;;;;13.93;3.20;;;;;;;;;;5057395;28;20208;-46
2022/08/26 00:19:20;;;;;;;15.30;3.88;;;;;;;;;;5057922;28;20208;-46
2022/08/26 00:21:48;;;;;;;15.23;3.53;;;;;;;;;;5057388;28;20196;-46
2022/08/26 00:24:17;;;;;;;8.85;3.05;;;;;;;;;;5057575;28;20204;-46
2022/08/26 00:26:44;;;;;;;16.17;3.58;;;;;;;;;;5057587;28;20204;-47
2022/08/26 00:29:11;;;;;;;9.32;3.47;;;;;;;;;;5040022;28;20567;-47
2022/08/26 00:31:39;;;;;;;15.43;3.13;;;;;;;;;;5057780;28;20507;-46
2022/08/26 00:34:07;;;;;;;14.85;4.07;;;;;;;;;;5056817;28;20250;-46
2022/08/26 00:36:38;;;;;;;9.73;2.65;;;;;;;;;;5057121;28;20639;-46
2022/08/26 00:39:07;;;;;;;11.93;3.22;;;;;;;;;;5057340;28;20211;-47
2022/08/26 00:41:37;;;;;;;16.95;3.55;;;;;;;;;;5057073;28;20215;-46
2022/08/26 00:44:05;;;;;;;14.50;3.63;;;;;;;;;;5057017;28;20200;-46
2022/08/26 00:46:36;;;;;;;10.57;3.10;;;;;;;;;;5057345;28;20283;-47
2022/08/26 00:49:07;;;;;;;16.65;3.65;;;;;;;;;;5040020;28;20538;-47
2022/08/26 00:51:54;;;;;;;20.05;3.20;;;;;;;;;;5040438;28;20246;-47
2022/08/26 00:54:24;;;;;;;9.55;2.80;;;;;;;;;;5039779;28;20200;-48
2022/08/26 00:56:59;;;;;;;12.68;2.97;;;;;;;;;;5040126;28;20267;-47
2022/08/26 00:59:28;;;;;;;10.70;2.88;;;;;;;;;;5040034;28;20209;-48
2022/08/26 01:02:00;;;;;;;10.57;3.20;;;;;;;;;;5040320;28;20199;-46
2022/08/26 01:04:30;;;;;;;8.55;2.92;;;;;;;;;;5057034;28;20214;-47
2022/08/26 01:06:57;;;;;;;17.05;3.55;;;;;;;;;;5039602;28;20579;-46
2022/08/26 01:09:25;;;;;;;9.95;3.00;;;;;;;;;;5056664;28;20215;-47
2022/08/26 01:11:55;;;;;;;8.70;2.90;;;;;;;;;;5056593;28;20563;-47
2022/08/26 01:14:23;;;;;;;14.43;3.20;;;;;;;;;;5039298;28;20285;-46
2022/08/26 01:16:51;;;;;;;7.80;3.55;;;;;;;;;;5039095;28;20196;-48
2022/08/26 01:19:22;;;;;;;9.55;3.50;;;;;;;;;;5056300;28;20617;-47
2022/08/26 01:21:59;;;;;;;9.52;3.20;;;;;;;;;;5039246;28;20287;-46
2022/08/26 01:24:27;;;;;;;11.10;2.90;;;;;;;;;;5038556;28;20204;-50
2022/08/26 01:27:02;;;;;;;11.05;3.85;;;;;;;;;;5038824;28;20188;-47
2022/08/26 01:29:31;;;;;;;11.90;3.35;;;;;;;;;;5037837;28;20212;-48
2022/08/26 01:31:58;;;;;;;16.05;3.33;;;;;;;;;;5037780;28;20648;-47
2022/08/26 01:34:33;;;;;;;15.93;4.07;;;;;;;;;;5054602;28;20616;-48
2022/08/26 01:37:04;;;;;;;12.80;4.45;;;;;;;;;;5054869;28;20195;-47
2022/08/26 01:39:33;;;;;;;8.85;3.63;;;;;;;;;;5037789;28;20207;-48
2022/08/26 01:42:02;;;;;;;6.97;4.25;;;;;;;;;;5054979;28;20208;-47
2022/08/26 01:44:46;;;;;;;14.70;4.13;;;;;;;;;;5039574;28;20203;-47
2022/08/26 01:47:14;;;;;;;11.65;3.83;;;;;;;;;;5038377;28;20256;-50
2022/08/26 01:49:45;;;;;;;14.73;4.18;;;;;;;;;;5038651;28;20566;-46
2022/08/26 01:52:15;;;;;;;12.48;3.70;;;;;;;;;;5038377;28;20680;-47
2022/08/26 01:54:42;;;;;;;13.18;3.88;;;;;;;;;;5038443;28;20204;-47
2022/08/26 01:57:17;;;;;;;13.00;4.07;;;;;;;;;;5038213;28;20188;-46
2022/08/26 01:59:45;;;;;;;8.52;3.78;;;;;;;;;;5055768;28;20285;-46
2022/08/26 02:02:11;;;;;;;11.23;4.30;;;;;;;;;;5038477;28;20262;-46
2022/08/26 02:04:50;;;;;;;7.43;4.00;;;;;;;;;;5038319;28;20204;-48
2022/08/26 02:07:18;;;;;;;8.50;3.78;;;;;;;;;;5038885;28;20196;-46
2022/08/26 02:09:48;;;;;;;7.75;3.78;;;;;;;;;;5038577;28;20227;-47
2022/08/26 02:12:16;;;;;;;11.25;4.07;;;;;;;;;;5055507;28;20208;-49
2022/08/26 02:14:50;;;;;;;10.43;3.83;;;;;;;;;;5037953;28;20230;-48
2022/08/26 02:17:22;;;;;;;9.25;4.28;;;;;;;;;;5055305;28;20204;-46
2022/08/26 02:19:49;;;;;;;12.93;4.20;;;;;;;;;;5037951;28;20203;-46
2022/08/26 02:22:21;;;;;;;20.05;4.35;;;;;;;;;;5055157;28;20250;-47
2022/08/26 02:24:56;;;;;;;11.30;4.75;;;;;;;;;;5055124;28;20191;-50
2022/08/26 02:27:26;;;;;;;14.70;4.40;;;;;;;;;;5055362;28;20200;-49
2022/08/26 02:30:12;;;;;;;12.23;4.30;;;;;;;;;;5054916;28;20219;-52
2022/08/26 02:32:39;;;;;;;14.27;3.63;;;;;;;;;;5055279;28;20206;-51
2022/08/26 02:35:09;;;;;;;8.27;3.60;;;;;;;;;;5055556;28;20204;-48
2022/08/26 02:37:36;;;;;;;9.38;3.85;;;;;;;;;;5055146;28;20207;-47
2022/08/26 02:40:05;;;;;;;17.52;4.13;;;;;;;;;;5054976;28;20321;-49
2022/08/26 02:42:33;;;;;;;13.80;3.35;;;;;;;;;;5054703;28;20624;-47
2022/08/26 02:45:01;;;;;;;11.60;3.47;;;;;;;;;;5021212;28;20303;-46
2022/08/26 02:47:28;;;;;;;9.52;3.17;;;;;;;;;;5054982;28;20206;-47
2022/08/26 02:49:58;;;;;;;11.88;3.42;;;;;;;;;;5054834;28;20227;-46
2022/08/26 02:52:25;;;;;;;7.93;3.28;;;;;;;;;;5054926;28;20293;-47
2022/08/26 02:54:54;;;;;;;8.32;4.30;;;;;;;;;;5054665;28;20273;-47
2022/08/26 02:57:21;;;;;;;17.30;3.58;;;;;;;;;;5054597;28;20199;-46
2022/08/26 02:59:50;;;;;;;8.70;3.40;;;;;;;;;;5054427;28;20208;-46
2022/08/26 03:02:16;;;;;;;9.88;4.15;;;;;;;;;;5054319;28;20706;-47
2022/08/26 03:04:44;;;;;;;13.38;4.50;;;;;;;;;;5054639;28;20204;-47
2022/08/26 03:07:28;;;;;;;11.18;4.20;;;;;;;;;;5054313;28;20184;-47
2022/08/26 03:09:56;;;;;;;10.13;4.10;;;;;;;;;;5054257;28;20212;-46
2022/08/26 03:12:23;;;;;;;20.27;4.03;;;;;;;;;;5054567;28;20200;-52
2022/08/26 03:14:51;;;;;;;12.23;3.92;;;;;;;;;;5054377;28;20227;-48
2022/08/26 03:17:19;;;;;;;9.27;3.80;;;;;;;;;;5054318;28;20211;-51
2022/08/26 03:19:46;;;;;;;11.68;4.18;;;;;;;;;;5054172;28;20208;-48
2022/08/26 03:22:20;;;;;;;7.97;3.55;;;;;;;;;;5054338;28;20536;-46
2022/08/26 03:24:48;;;;;;;12.45;3.97;;;;;;;;;;5054305;28;20234;-49
2022/08/26 03:27:15;;;;;;;14.10;3.85;;;;;;;;;;5054098;28;20624;-46
2022/08/26 03:32:28;;;;;;;8.40;3.97;;;;;;;;;;5054417;28;20253;-46
2022/08/26 03:34:56;;;;;;;16.63;4.18;;;;;;;;;;5054253;28;20204;-46
2022/08/26 03:37:23;;;;;;;11.85;4.70;;;;;;;;;;5054034;28;20200;-48
2022/08/26 03:39:51;;;;;;;11.57;4.63;;;;;;;;;;5054195;28;20200;-47
2022/08/26 03:42:18;;;;;;;9.85;3.97;;;;;;;;;;5054066;28;20200;-46
2022/08/26 03:44:47;;;;;;;12.48;4.30;;;;;;;;;;5053997;28;20199;-46
2022/08/26 03:47:14;;;;;;;10.43;4.03;;;;;;;;;;5054233;28;20522;-46
2022/08/26 03:49:42;;;;;;;8.82;4.57;;;;;;;;;;5054136;28;20204;-46
2022/08/26 03:52:09;;;;;;;15.45;4.93;;;;;;;;;;5054036;28;20255;-48
2022/08/26 03:54:37;;;;;;;13.38;4.60;;;;;;;;;;5053839;28;20295;-46
2022/08/26 03:57:04;;;;;;;11.32;4.65;;;;;;;;;;5053802;28;20594;-45
2022/08/26 03:59:31;;;;;;;10.52;4.90;;;;;;;;;;5053814;28;20200;-46
2022/08/26 04:01:58;;;;;;;8.73;4.88;;;;;;;;;;5054196;28;20215;-47
2022/08/26 04:04:25;;;;;;;9.68;4.47;;;;;;;;;;5054312;28;20516;-48
2022/08/26 04:06:57;;;;;;;9.80;5.00;;;;;;;;;;5053915;28;20621;-47
2022/08/26 04:09:26;;;;;;;12.32;5.00;;;;;;;;;;5052238;28;20710;-50
2022/08/26 04:11:54;;;;;;;10.55;4.95;;;;;;;;;;5056381;28;20236;-45
2022/08/26 04:14:24;;;;;;;10.63;4.78;;;;;;;;;;5055602;28;20695;-50
2022/08/26 04:16:53;;;;;;;9.57;4.32;;;;;;;;;;5056401;28;20223;-48
2022/08/26 04:19:23;;;;;;;10.85;4.63;;;;;;;;;;5056874;28;20242;-49
2022/08/26 04:21:51;;;;;;;9.88;5.03;;;;;;;;;;5055914;28;20223;-46
2022/08/26 04:24:20;;;;;;;11.30;4.97;;;;;;;;;;5056714;28;20282;-46
2022/08/26 04:26:48;;;;;;;8.77;5.00;;;;;;;;;;5056594;28;20227;-48
2022/08/26 04:29:18;;;;;;;10.00;5.30;;;;;;;;;;5056838;28;20220;-46
2022/08/26 04:31:47;;;;;;;12.77;5.00;;;;;;;;;;5056068;28;20257;-46
2022/08/26 04:34:14;;;;;;;9.50;4.82;;;;;;;;;;5056763;28;20219;-46
2022/08/26 04:36:41;;;;;;;10.13;4.80;;;;;;;;;;5038451;28;20688;-47
2022/08/26 04:39:16;;;;;;;10.60;5.38;;;;;;;;;;5056328;28;20306;-47
2022/08/26 04:41:47;;;;;;;13.75;5.85;;;;;;;;;;5055899;28;20676;-46
2022/08/26 04:44:14;;;;;;;13.55;5.28;;;;;;;;;;5056612;28;20584;-47
2022/08/26 04:46:41;;;;;;;16.40;5.97;;;;;;;;;;5055779;28;20224;-47
2022/08/26 04:49:10;;;;;;;10.90;5.50;;;;;;;;;;5055994;28;20289;-46
2022/08/26 04:51:38;;;;;;;13.70;5.20;;;;;;;;;;5060547;28;20243;-46
2022/08/26 04:54:05;;;;;;;14.65;5.38;;;;;;;;;;5056746;28;20235;-52
2022/08/26 04:56:37;;;;;;;11.27;5.57;;;;;;;;;;5054716;28;20232;-49
2022/08/26 04:59:07;;;;;;;10.20;5.22;;;;;;;;;;5055366;28;20228;-47
2022/08/26 05:01:45;;;;;;;14.25;5.80;;;;;;;;;;5054469;28;20301;-47
2022/08/26 05:04:12;;;;;;;12.18;5.50;;;;;;;;;;5056201;28;20234;-48
2022/08/26 05:06:42;;;;;;;10.73;6.00;;;;;;;;;;5055133;28;20633;-46
2022/08/26 05:09:09;;;;;;;11.73;5.65;;;;;;;;;;5055799;28;20319;-46
2022/08/26 05:11:37;;;;;;;16.83;5.80;;;;;;;;;;5038972;28;20609;-48
2022/08/26 05:14:04;;;;;;;16.05;5.85;;;;;;;;;;5056773;28;20596;-46
2022/08/26 05:16:32;;;;;;;15.52;5.38;;;;;;;;;;5056599;28;20230;-47
2022/08/26 05:18:59;;;;;;;12.40;5.55;;;;;;;;;;5056387;28;20204;-45
2022/08/26 05:21:27;;;;;;;12.00;5.32;;;;;;;;;;5056683;28;20214;-46
2022/08/26 05:23:55;;;;;;;11.30;5.32;;;;;;;;;;5056235;28;20208;-48
2022/08/26 05:26:28;;;;;;;10.68;5.60;;;;;;;;;;5056416;28;20299;-46
2022/08/26 05:28:56;;;;;;;12.20;4.97;;;;;;;;;;5056394;28;20616;-45
2022/08/26 05:31:30;;;;;;;14.35;6.00;;;;;;;;;;5055941;28;20228;-46
2022/08/26 05:33:59;;;;;;;11.98;5.57;;;;;;;;;;5056511;28;20203;-53
2022/08/26 05:36:32;;;;;;;12.93;5.78;;;;;;;;;;5031895;28;20232;-46
2022/08/26 05:39:00;;;;;;;11.20;5.78;;;;;;;;;;5035362;28;20232;-49
2022/08/26 05:41:30;;;;;;;13.98;5.93;;;;;;;;;;5051815;28;20234;-46
2022/08/26 05:44:05;;;;;;;18.02;5.70;;;;;;;;;;5054513;28;20257;-47
2022/08/26 05:46:32;;;;;;;17.38;6.40;;;;;;;;;;5054198;28;20648;-46
2022/08/26 05:49:00;;;;;;;11.38;5.63;;;;;;;;;;5054491;28;20587;-50
2022/08/26 05:51:27;;;;;;;15.93;6.47;;;;;;;;;;5053960;28;20247;-51
2022/08/26 05:53:57;;;;;;;15.18;5.60;;;;;;;;;;5054655;28;20274;-52
2022/08/26 05:56:26;;;;;;;13.75;6.05;;;;;;;;;;5053673;28;20227;-53
2022/08/26 05:58:55;;;;;;;15.45;6.20;;;;;;;;;;5054351;28;20252;-50
2022/08/26 06:01:25;;;;;;;13.43;5.65;;;;;;;;;;5053107;28;20250;-51
2022/08/26 06:03:56;;;;;;;13.18;5.95;;;;;;;;;;5054304;28;20302;-49
2022/08/26 06:06:32;;;;;;;14.57;5.88;;;;;;;;;;5053703;28;20231;-46
2022/08/26 06:09:02;;;;;;;23.98;6.43;;;;;;;;;;5054798;28;20259;-50
2022/08/26 06:11:31;;;;;;;14.23;5.88;;;;;;;;;;5053921;28;20239;-50
2022/08/26 06:14:00;;;;;;;17.58;6.63;;;;;;;;;;5054672;28;20322;-52
2022/08/26 06:16:32;;;;;;;15.65;6.00;;;;;;;;;;5053711;28;20224;-52
2022/08/26 06:19:01;;;;;;;15.25;5.57;;;;;;;;;;5053576;28;20720;-47
2022/08/26 06:21:31;;;;;;;20.02;6.18;;;;;;;;;;5053842;28;20239;-52
2022/08/26 06:26:59;;;;;;;20.40;6.25;;;;;;;;;;5053930;28;20228;-51
2022/08/26 06:29:28;;;;;;;18.60;6.38;;;;;;;;;;5053525;28;20239;-50
2022/08/26 06:31:56;;;;;;;15.38;7.57;;;;;;;;;;5053189;28;20240;-52
2022/08/26 06:34:24;;;;;;;17.75;6.55;;;;;;;;;;5052812;28;20617;-50
2022/08/26 06:36:57;;;;;;;10.15;6.03;;;;;;;;;;5052561;28;20263;-49
2022/08/26 06:39:24;;;;;;;16.52;6.60;;;;;;;;;;5053483;28;20243;-49
2022/08/26 06:41:51;;;;;;;10.02;5.85;;;;;;;;;;5052278;28;20323;-52
2022/08/26 06:44:19;;;;;;;13.13;6.15;;;;;;;;;;5036058;28;20228;-47
2022/08/26 06:46:46;;;;;;;13.38;6.13;;;;;;;;;;5053750;28;20289;-47
2022/08/26 06:49:17;;;;;;;13.48;6.13;;;;;;;;;;5053012;28;20281;-48
2022/08/26 06:51:56;;;;;;;13.57;5.50;;;;;;;;;;5052695;28;20235;-50
2022/08/26 06:54:25;;;;;;;16.35;6.97;;;;;;;;;;5052828;28;20227;-49
2022/08/26 06:56:52;;;;;;;16.95;5.93;;;;;;;;;;5053508;28;20235;-50
2022/08/26 06:59:20;;;;;;;15.55;6.20;;;;;;;;;;5052578;28;20573;-48
2022/08/26 07:01:47;;;;;;;12.63;5.97;;;;;;;;;;5054508;28;20214;-52
2022/08/26 07:04:16;;;;;;;16.25;6.57;;;;;;;;;;5053648;28;20199;-48
2022/08/26 07:06:49;;;;;;;11.30;5.90;;;;;;;;;;5053677;28;20501;-52
2022/08/26 07:09:21;;;;;;;16.95;6.50;;;;;;;;;;5054873;28;20239;-51
2022/08/26 07:11:50;;;;;;;12.02;5.55;;;;;;;;;;5054484;28;20277;-50
2022/08/26 07:14:18;;;;;;;14.43;5.60;;;;;;;;;;5054787;28;20211;-49
2022/08/26 07:16:48;;;;;;;14.63;6.15;;;;;;;;;;5054299;28;20628;-48
2022/08/26 07:19:17;;;;;;;15.90;6.10;;;;;;;;;;5054030;28;20227;-50
2022/08/26 07:22:00;;;;;;;17.73;6.63;;;;;;;;;;5054294;28;20532;-48
2022/08/26 07:24:28;;;;;;;15.45;6.40;;;;;;;;;;5054562;28;20286;-48
2022/08/26 07:27:02;;;;;;;14.43;6.20;;;;;;;;;;5054977;28;20238;-49
2022/08/26 07:29:32;;;;;;;20.73;7.30;;;;;;;;;;5054557;28;20212;-49
2022/08/26 07:31:59;;;;;;;13.20;6.32;;;;;;;;;;5054302;28;20219;-50
2022/08/26 07:34:26;;;;;;;14.40;6.10;;;;;;;;;;5054432;28;20210;-50
2022/08/26 07:36:55;;;;;;;14.77;6.05;;;;;;;;;;5053395;28;20649;-49
2022/08/26 07:39:24;;;;;;;14.05;6.10;;;;;;;;;;5056609;28;20209;-50
2022/08/26 07:41:51;;;;;;;16.90;6.10;;;;;;;;;;5066347;28;20201;-49
2022/08/26 07:44:18;;;;;;;16.30;6.35;;;;;;;;;;5054718;28;20208;-48
2022/08/26 07:46:45;;;;;;;17.05;6.28;;;;;;;;;;5056838;28;20499;-51
2022/08/26 07:49:23;;;;;;;17.88;6.43;;;;;;;;;;5057931;28;20610;-50
2022/08/26 07:51:53;;;;;;;14.35;6.10;;;;;;;;;;5057060;28;20236;-48
2022/08/26 07:54:20;;;;;;;15.95;6.20;;;;;;;;;;5057925;28;20199;-49
2022/08/26 07:56:53;;;;;;;13.60;6.40;;;;;;;;;;5046485;28;20247;-50
2022/08/26 07:59:22;;;;;;;17.48;6.60;;;;;;;;;;5058532;28;20211;-50
2022/08/26 08:01:49;;;;;;;15.15;6.00;;;;;;;;;;5056451;28;20647;-50
2022/08/26 08:04:17;;;;;;;16.35;6.00;;;;;;;;;;5057109;28;20200;-53
2022/08/26 08:06:53;;;;;;;13.80;6.30;;;;;;;;;;5056878;28;20203;-53
2022/08/26 08:09:20;;;;;;;15.23;6.47;;;;;;;;;;5057854;28;20204;-50
2022/08/26 08:11:48;;;;;;;11.18;6.13;;;;;;;;;;5056257;28;20653;-53
2022/08/26 08:14:17;;;;;;;13.57;5.43;;;;;;;;;;5056803;28;20526;-49
2022/08/26 08:16:49;;;;;;;11.52;5.50;;;;;;;;;;5056111;28;20570;-52
2022/08/26 08:19:20;;;;;;;16.80;6.13;;;;;;;;;;5055371;28;20552;-52
2022/08/26 08:21:47;;;;;;;15.40;6.30;;;;;;;;;;5057336;28;20215;-52
2022/08/26 08:24:15;;;;;;;16.42;6.65;;;;;;;;;;5055975;28;20208;-50
2022/08/26 08:26:42;;;;;;;13.38;6.53;;;;;;;;;;5057361;28;20207;-52
2022/08/26 08:29:09;;;;;;;13.50;6.03;;;;;;;;;;5036743;28;20656;-50
2022/08/26 08:31:36;;;;;;;14.40;5.65;;;;;;;;;;5036621;28;20237;-49
2022/08/26 08:34:25;;;;;;;12.98;5.35;;;;;;;;;;5043110;28;20289;-51
2022/08/26 08:36:52;;;;;;;11.15;5.75;;;;;;;;;;5055234;28;20297;-49
2022/08/26 08:39:20;;;;;;;10.63;5.75;;;;;;;;;;5055410;28;20266;-52
2022/08/26 08:42:25;;;;;;;18.30;6.20;;;;;;;;;;5055338;28;20224;-51
2022/08/26 08:44:56;;;;;;;13.65;5.72;;;;;;;;;;5054950;28;20234;-49
2022/08/26 08:47:33;;;;;;;13.52;5.70;;;;;;;;;;5056306;28;20257;-52
2022/08/26 08:50:21;;;;;;;14.05;5.97;;;;;;;;;;5054753;28;20232;-49
2022/08/26 08:53:02;;;;;;;14.15;5.53;;;;;;;;;;5055101;28;20683;-49
2022/08/26 08:55:46;;;;;;;16.50;5.40;;;;;;;;;;5038284;28;20692;-52
2022/08/26 08:58:18;;;;;;;12.70;5.50;;;;;;;;;;5055102;28;20235;-49
2022/08/26 09:00:50;;;;;;;13.88;5.40;;;;;;;;;;5054865;28;20235;-48
2022/08/26 09:03:29;;;;;;;11.02;5.57;;;;;;;;;;5038626;28;20228;-49
2022/08/26 09:05:59;;;;;;;14.65;5.10;;;;;;;;;;5036982;28;20281;-50
2022/08/26 09:08:31;;;;;;;7.70;5.03;;;;;;;;;;5055099;28;20293;-50
2022/08/26 09:11:00;;;;;;;8.98;4.82;;;;;;;;;;5038052;28;20228;-50
2022/08/26 09:13:28;;;;;;;8.93;4.68;;;;;;;;;;5038165;28;20250;-48
2022/08/26 09:16:10;;;;;;;9.10;5.22;;;;;;;;;;5055325;28;20254;-49
2022/08/26 09:18:38;;;;;;;8.25;4.85;;;;;;;;;;5038387;28;20232;-51
2022/08/26 09:21:08;;;;;;;11.73;5.38;;;;;;;;;;5055534;28;20547;-48
2022/08/26 09:23:38;;;;;;;14.30;4.63;;;;;;;;;;5055416;28;20195;-46
2022/08/26 09:26:16;;;;;;;11.38;5.20;;;;;;;;;;5056205;28;20192;-45
2022/08/26 09:28:56;;;;;;;8.20;4.80;;;;;;;;;;5039327;28;20196;-50
2022/08/26 09:31:29;;;;;;;15.05;4.70;;;;;;;;;;5038852;28;20196;-50
2022/08/26 09:34:05;;;;;;;9.75;4.82;;;;;;;;;;5056560;28;20283;-46
2022/08/26 09:36:35;;;;;;;12.40;4.72;;;;;;;;;;5056255;28;20196;-46
2022/08/26 09:39:35;;;;;;;13.00;4.32;;;;;;;;;;5055935;28;20674;-45
2022/08/26 09:42:09;;;;;;;8.63;4.57;;;;;;;;;;5048177;28;20203;-48
2022/08/26 09:45:00;;;;;;;8.68;4.32;;;;;;;;;;5056052;28;20214;-47
2022/08/26 09:47:35;;;;;;;11.55;4.60;;;;;;;;;;5055805;28;20214;-46
2022/08/26 09:50:10;;;;;;;13.40;4.60;;;;;;;;;;5038729;28;20208;-46
2022/08/26 09:52:38;;;;;;;6.97;4.45;;;;;;;;;;5038613;28;20243;-46
2022/08/26 09:55:10;;;;;;;8.68;4.53;;;;;;;;;;5055673;28;20196;-46
2022/08/26 09:57:49;;;;;;;10.95;3.95;;;;;;;;;;5055489;28;20660;-49
2022/08/26 10:00:38;;;;;;;10.15;4.18;;;;;;;;;;5055870;28;20629;-50
2022/08/26 10:03:09;;;;;;;9.30;4.03;;;;;;;;;;5055770;28;20505;-46
2022/08/26 10:06:06;;;;;;;10.13;3.78;;;;;;;;;;5038360;28;20204;-48
2022/08/26 10:08:38;;;;;;;10.90;3.95;;;;;;;;;;5038137;28;20217;-48
2022/08/26 10:11:24;;;;;;;11.30;4.53;;;;;;;;;;5038219;28;20212;-45
2022/08/26 10:14:03;;;;;;;10.07;3.70;;;;;;;;;;5055242;28;20282;-46
2022/08/26 10:16:46;;;;;;;13.98;4.10;;;;;;;;;;5038092;28;20269;-46
2022/08/26 10:19:19;;;;;;;10.23;3.65;;;;;;;;;;5055609;28;20249;-47
2022/08/26 10:21:50;;;;;;;9.18;3.50;;;;;;;;;;5038172;28;20541;-46
2022/08/26 10:24:29;;;;;;;9.50;3.97;;;;;;;;;;5055351;28;20203;-45
2022/08/26 10:27:17;;;;;;;9.52;4.35;;;;;;;;;;5038024;28;20200;-47
2022/08/26 10:29:49;;;;;;;8.73;3.67;;;;;;;;;;5055407;28;20200;-49
2022/08/26 10:32:34;;;;;;;6.75;3.47;;;;;;;;;;5055026;28;20253;-50
2022/08/26 10:35:09;;;;;;;7.93;3.97;;;;;;;;;;5037800;28;20646;-49
2022/08/26 10:37:39;;;;;;;5.63;3.65;;;;;;;;;;5036736;28;20200;-49
2022/08/26 10:40:21;;;;;;;12.25;4.18;;;;;;;;;;5053101;28;20216;-48
2022/08/26 10:42:53;;;;;;;9.13;3.83;;;;;;;;;;5054736;28;20192;-48
2022/08/26 10:45:24;;;;;;;10.68;3.95;;;;;;;;;;5037816;28;20287;-50
2022/08/26 10:48:07;;;;;;;5.72;3.25;;;;;;;;;;5036901;28;20675;-49
2022/08/26 10:50:40;;;;;;;6.47;3.65;;;;;;;;;;5037710;28;20200;-48
2022/08/26 10:53:27;;;;;;;7.28;3.30;;;;;;;;;;5037516;28;20247;-49
2022/08/26 10:56:10;;;;;;;10.70;3.35;;;;;;;;;;5037492;28;20546;-50
2022/08/26 10:59:04;;;;;;;12.73;3.20;;;;;;;;;;5037468;28;20203;-53
2022/08/26 11:01:42;;;;;;;11.48;3.25;;;;;;;;;;5052903;28;20291;-49
2022/08/26 11:04:12;;;;;;;7.80;3.30;;;;;;;;;;5035281;28;20520;-51
2022/08/26 11:06:39;;;;;;;5.68;2.75;;;;;;;;;;5054053;28;20212;-48
2022/08/26 11:09:07;;;;;;;6.32;3.03;;;;;;;;;;5054611;28;20207;-48
2022/08/26 11:11:38;;;;;;;9.15;3.22;;;;;;;;;;5050099;28;20232;-52
2022/08/26 11:14:20;;;;;;;5.18;3.10;;;;;;;;;;5052338;28;20278;-50
2022/08/26 11:16:57;;;;;;;14.25;3.35;;;;;;;;;;5032806;28;20228;-48
2022/08/26 11:19:37;;;;;;;9.95;3.15;;;;;;;;;;5053867;28;20226;-48
2022/08/26 11:22:30;;;;;;;16.67;3.30;;;;;;;;;;5056970;28;20234;-51
2022/08/26 11:24:57;;;;;;;7.18;3.50;;;;;;;;;;5056801;28;20234;-48
2022/08/26 11:27:25;;;;;;;15.85;3.40;;;;;;;;;;5057044;28;20240;-49
2022/08/26 11:30:00;;;;;;;5.75;2.97;;;;;;;;;;5057239;28;20240;-49
2022/08/26 11:32:33;;;;;;;7.47;3.40;;;;;;;;;;5056856;28;20235;-50
2022/08/26 11:35:10;;;;;;;9.23;3.40;;;;;;;;;;5057446;28;20228;-50
2022/08/26 11:37:47;;;;;;;9.85;2.92;;;;;;;;;;5057186;28;20675;-49
2022/08/26 11:40:19;;;;;;;10.25;3.05;;;;;;;;;;5056952;28;20313;-48
2022/08/26 11:43:10;;;;;;;4.53;2.65;;;;;;;;;;5056607;28;20715;-53
2022/08/26 11:45:41;;;;;;;8.93;2.67;;;;;;;;;;5045703;28;20310;-49
2022/08/26 11:48:39;;;;;;;6.55;3.47;;;;;;;;;;5058872;28;20200;-52
2022/08/26 11:51:33;;;;;;;3.97;2.78;;;;;;;;;;5057636;28;20581;-49
2022/08/26 11:54:15;;;;;;;4.57;2.97;;;;;;;;;;5056946;28;20224;-48
2022/08/26 11:56:58;;;;;;;9.38;3.38;;;;;;;;;;5042869;28;20192;-47
2022/08/26 11:59:32;;;;;;;5.95;3.38;;;;;;;;;;5041368;28;20200;-48
2022/08/26 12:02:11;;;;;;;8.68;3.38;;;;;;;;;;5057903;28;20516;-45
2022/08/26 12:04:41;;;;;;;6.93;3.55;;;;;;;;;;5057954;28;20203;-46
2022/08/26 12:07:08;;;;;;;5.25;3.00;;;;;;;;;;5057714;28;20211;-50
2022/08/26 12:09:50;;;;;;;12.25;3.38;;;;;;;;;;5040809;28;20226;-46
2022/08/26 12:12:23;;;;;;;8.07;3.33;;;;;;;;;;5057688;28;20641;-46
2022/08/26 12:15:15;;;;;;;4.35;3.20;;;;;;;;;;5058032;28;20196;-47
2022/08/26 12:17:45;;;;;;;6.63;3.50;;;;;;;;;;5057645;28;20528;-49
2022/08/26 12:20:45;;;;;;;16.48;3.90;;;;;;;;;;5057558;28;20204;-48
2022/08/26 12:23:33;;;;;;;8.85;3.45;;;;;;;;;;5041130;28;20277;-46
2022/08/26 12:26:11;;;;;;;13.38;3.20;;;;;;;;;;5057862;28;20211;-47
2022/08/26 12:28:48;;;;;;;9.48;3.28;;;;;;;;;;5056148;28;20523;-46
2022/08/26 12:31:42;;;;;;;6.35;3.28;;;;;;;;;;5038122;28;20216;-45
2022/08/26 12:34:15;;;;;;;3.55;3.00;;;;;;;;;;5046229;28;20224;-46
2022/08/26 12:36:46;;;;;;;8.88;3.47;;;;;;;;;;5026485;28;20236;-52
2022/08/26 12:39:24;;;;;;;3.10;2.58;;;;;;;;;;5038352;28;20680;-46
2022/08/26 12:41:54;;;;;;;5.85;3.15;;;;;;;;;;5055695;28;20215;-46
2022/08/26 12:44:46;;;;;;;5.68;3.20;;;;;;;;;;5056419;28;20290;-49
2022/08/26 12:47:40;;;;;;;5.75;3.55;;;;;;;;;;5047675;28;20233;-44
2022/08/26 12:50:38;;;;;;;9.82;2.95;;;;;;;;;;5046802;28;20224;-46
2022/08/26 12:53:08;;;;;;;7.13;3.35;;;;;;;;;;5035733;28;20243;-47
2022/08/26 12:55:38;;;;;;;6.35;3.80;;;;;;;;;;5036283;28;20240;-46
2022/08/26 12:58:35;;;;;;;7.43;3.60;;;;;;;;;;5035833;28;20228;-46
2022/08/26 13:01:02;;;;;;;6.72;3.78;;;;;;;;;;5011042;28;20302;-50
2022/08/26 13:03:37;;;;;;;6.93;3.47;;;;;;;;;;5036121;28;20232;-47
2022/08/26 13:06:07;;;;;;;4.72;3.75;;;;;;;;;;5018783;28;20680;-48
2022/08/26 13:08:43;;;;;;;7.75;3.63;;;;;;;;;;5051989;28;20318;-46
2022/08/26 13:11:30;;;;;;;6.43;3.67;;;;;;;;;;5035119;28;20241;-46
2022/08/26 13:13:57;;;;;;;7.13;3.30;;;;;;;;;;5035712;28;20240;-46
2022/08/26 13:16:25;;;;;;;7.45;3.75;;;;;;;;;;5055314;28;20238;-50
2022/08/26 13:18:55;;;;;;;5.93;3.50;;;;;;;;;;5056255;28;20247;-47
2022/08/26 13:21:29;;;;;;;13.65;4.07;;;;;;;;;;5055345;28;20251;-52
2022/08/26 13:24:10;;;;;;;4.68;3.22;;;;;;;;;;5062593;28;20231;-50
2022/08/26 13:26:39;;;;;;;6.18;3.50;;;;;;;;;;5053463;28;20219;-49
2022/08/26 13:29:06;;;;;;;7.95;3.40;;;;;;;;;;5055311;28;20246;-47
2022/08/26 13:31:38;;;;;;;6.13;2.97;;;;;;;;;;5055036;28;20267;-48
2022/08/26 13:34:06;;;;;;;6.70;3.75;;;;;;;;;;5042835;28;20244;-48
2022/08/26 13:36:33;;;;;;;5.18;3.28;;;;;;;;;;5052754;28;20224;-49
2022/08/26 13:39:01;;;;;;;6.30;3.80;;;;;;;;;;5052990;28;20306;-47
2022/08/26 13:41:28;;;;;;;7.55;3.95;;;;;;;;;;5053129;28;20232;-52
2022/08/26 13:43:56;;;;;;;4.85;3.55;;;;;;;;;;5053891;28;20292;-48
2022/08/26 13:46:26;;;;;;;11.02;3.50;;;;;;;;;;5055017;28;20232;-48
2022/08/26 13:48:54;;;;;;;8.65;3.50;;;;;;;;;;5066527;28;20866;-49
2022/08/26 13:51:22;;;;;;;8.88;3.70;;;;;;;;;;5074025;28;20765;-47
2022/08/26 13:53:49;;;;;;;10.02;3.50;;;;;;;;;;5074666;28;20241;-48
2022/08/26 13:56:17;;;;;;;6.47;3.47;;;;;;;;;;5057198;28;20265;-48
2022/08/26 13:58:45;;;;;;;4.63;3.33;;;;;;;;;;5073822;28;20231;-50
2022/08/26 14:01:14;;;;;;;7.15;3.53;;;;;;;;;;5056349;28;20231;-48
2022/08/26 14:03:42;;;;;;;8.25;3.10;;;;;;;;;;5074279;28;20280;-48
2022/08/26 14:06:09;;;;;;;9.02;3.22;;;;;;;;;;5067956;28;20236;-49
2022/08/26 14:08:37;;;;;;;9.10;3.70;;;;;;;;;;5053739;28;20228;-50
2022/08/26 14:11:04;;;;;;;4.32;3.13;;;;;;;;;;5052969;28;20232;-49
2022/08/26 14:13:32;;;;;;;3.58;2.97;;;;;;;;;;5053042;28;20235;-48
2022/08/26 14:16:00;;;;;;;6.03;3.10;;;;;;;;;;5054129;28;20259;-49
2022/08/26 14:18:31;;;;;;;6.15;3.20;;;;;;;;;;5020282;28;20266;-48
2022/08/26 14:20:59;;;;;;;6.97;3.45;;;;;;;;;;5035050;28;20235;-48
2022/08/26 14:23:26;;;;;;;6.13;3.72;;;;;;;;;;5053618;28;20232;-49
2022/08/26 14:25:53;;;;;;;6.93;3.20;;;;;;;;;;5052790;28;20221;-48
2022/08/26 14:28:20;;;;;;;6.80;3.50;;;;;;;;;;5054049;28;20246;-47
2022/08/26 14:30:51;;;;;;;6.45;3.58;;;;;;;;;;5053903;28;20586;-46
2022/08/26 14:33:23;;;;;;;8.45;3.70;;;;;;;;;;5053926;28;20280;-51
2022/08/26 14:35:50;;;;;;;4.80;3.33;;;;;;;;;;5036416;28;20231;-47
2022/08/26 14:38:17;;;;;;;7.55;3.58;;;;;;;;;;5036531;28;20251;-46
2022/08/26 14:40:44;;;;;;;8.98;3.47;;;;;;;;;;5053294;28;20239;-46
2022/08/26 14:43:14;;;;;;;6.75;3.33;;;;;;;;;;5053901;28;20315;-51
2022/08/26 14:45:42;;;;;;;19.45;9.50;;;;;;;;;;5050033;28;20552;-47
2022/08/26 14:48:10;;;;;;;8.20;4.20;;;;;;;;;;5053938;28;20231;-47
2022/08/26 14:50:37;;;;;;;6.03;3.50;;;;;;;;;;5052836;28;20234;-47
2022/08/26 14:55:49;;;;;;;11.88;3.70;;;;;;;;;;5053059;28;20219;-48
2022/08/26 14:58:16;;;;;;;5.22;3.55;;;;;;;;;;5054404;28;20256;-45
2022/08/26 15:00:43;;;;;;;5.53;3.45;;;;;;;;;;5046910;28;20236;-47
2022/08/26 15:03:10;;;;;;;7.18;3.38;;;;;;;;;;5052278;28;20235;-48
2022/08/26 15:05:44;;;;;;;7.72;4.07;;;;;;;;;;5051747;28;20816;-48
2022/08/26 15:08:14;;;;;;;8.15;3.70;;;;;;;;;;5052404;28;20543;-46
2022/08/26 15:10:41;;;;;;;6.47;3.63;;;;;;;;;;5052604;28;20223;-47
2022/08/26 15:13:08;;;;;;;7.80;3.90;;;;;;;;;;5051991;28;20219;-48